Time;durP1;ratioP1;P1;durP2;ratioP2;P2;SDS_P1;SDS_P2;PMS_P1;PMS_P2;Temp;Humidity;BMP_temperature;BMP_pressure;BME280_temperature;BME280_humidity;BME280_pressure;Samples;Min_cycle;Max_cycle;Signal;HPM_P1;HPM_P2
2023/05/15 00:00:09;;;;;;;7.03;5.40;;;10.80;99.90;;;;;;4987781;28;20277;-82
2023/05/15 00:02:36;;;;;;;8.77;5.63;;;10.80;99.90;;;;;;5003445;28;20222;-83
2023/05/15 00:05:03;;;;;;;6.67;5.17;;;10.80;99.90;;;;;;4970549;28;20238;-82
2023/05/15 00:07:29;;;;;;;6.37;4.73;;;10.70;99.90;;;;;;5004001;28;20203;-82
2023/05/15 00:09:55;;;;;;;6.67;4.60;;;10.40;99.90;;;;;;5004161;28;20568;-82
2023/05/15 00:12:21;;;;;;;9.40;5.47;;;10.50;99.90;;;;;;5020815;28;20736;-81
2023/05/15 00:14:47;;;;;;;6.57;4.50;;;10.50;99.90;;;;;;4970866;28;20687;-82
2023/05/15 00:17:12;;;;;;;7.83;5.33;;;10.50;99.90;;;;;;4970477;28;20183;-82
2023/05/15 00:19:38;;;;;;;7.97;5.20;;;10.50;99.90;;;;;;5003629;28;20195;-81
2023/05/15 00:22:04;;;;;;;12.50;5.43;;;10.40;99.90;;;;;;5003929;28;20215;-82
2023/05/15 00:24:30;;;;;;;9.20;6.10;;;10.40;99.90;;;;;;5036313;28;20218;-81
2023/05/15 00:26:56;;;;;;;6.03;4.10;;;10.40;99.90;;;;;;4970736;28;20565;-81
2023/05/15 00:29:22;;;;;;;16.33;6.17;;;10.20;99.90;;;;;;5004772;28;20235;-83
2023/05/15 00:31:48;;;;;;;7.90;4.90;;;10.00;99.90;;;;;;5003784;28;20203;-82
2023/05/15 00:34:14;;;;;;;9.03;6.60;;;10.00;99.90;;;;;;5036310;28;20215;-81
2023/05/15 00:36:40;;;;;;;11.67;6.50;;;10.00;99.90;;;;;;4990051;28;20227;-81
2023/05/15 00:39:05;;;;;;;7.27;4.77;;;9.90;99.90;;;;;;4983963;28;20231;-82
2023/05/15 00:41:33;;;;;;;6.80;4.83;;;9.80;99.90;;;;;;4967978;28;20303;-82
2023/05/15 00:44:00;;;;;;;8.73;5.80;;;9.70;99.90;;;;;;4984687;28;20234;-82
2023/05/15 00:46:27;;;;;;;6.80;5.43;;;9.60;99.90;;;;;;5016023;28;20219;-81
2023/05/15 00:48:54;;;;;;;7.83;4.03;;;9.70;99.90;;;;;;4966325;28;20215;-82
2023/05/15 00:51:20;;;;;;;7.40;3.93;;;9.70;99.90;;;;;;4984708;28;20220;-82
2023/05/15 00:53:46;;;;;;;4.77;3.67;;;9.80;99.90;;;;;;5000334;28;20235;-82
2023/05/15 00:56:13;;;;;;;12.03;6.97;;;9.50;99.90;;;;;;4982224;28;20947;-82
2023/05/15 00:58:39;;;;;;;7.77;5.60;;;9.40;99.90;;;;;;4984621;28;20199;-82
2023/05/15 01:01:05;;;;;;;5.70;4.70;;;9.50;99.90;;;;;;4966646;28;20243;-82
2023/05/15 01:03:31;;;;;;;6.67;5.10;;;9.40;99.90;;;;;;4984365;28;20314;-83
2023/05/15 01:05:56;;;;;;;6.93;4.30;;;9.50;99.90;;;;;;4990876;28;20238;-81
2023/05/15 01:08:32;;;;;;;7.43;4.07;;;9.60;99.90;;;;;;4964337;28;20596;-81
2023/05/15 01:10:59;;;;;;;6.73;4.50;;;9.70;99.90;;;;;;4997552;28;20187;-82
2023/05/15 01:13:24;;;;;;;8.60;5.47;;;9.90;99.90;;;;;;4984276;28;20192;-82
2023/05/15 01:15:50;;;;;;;6.43;5.23;;;10.00;99.90;;;;;;4981476;28;20221;-81
2023/05/15 01:18:16;;;;;;;11.13;6.60;;;10.10;99.90;;;;;;4965547;28;20318;-81
2023/05/15 01:21:00;;;;;;;11.70;6.20;;;10.20;99.90;;;;;;4966706;28;20900;-82
2023/05/15 01:23:56;;;;;;;5.90;4.17;;;10.30;99.90;;;;;;4999104;28;20219;-82
2023/05/15 01:26:56;;;;;;;10.97;5.63;;;10.30;99.90;;;;;;5016522;28;20321;-82
2023/05/15 01:29:32;;;;;;;11.10;6.20;;;10.40;99.90;;;;;;5018157;28;20285;-82
2023/05/15 01:32:10;;;;;;;7.27;5.53;;;10.50;99.90;;;;;;4997025;28;20594;-81
2023/05/15 01:35:18;;;;;;;5.97;4.90;;;10.50;99.90;;;;;;4997389;28;20192;-82
2023/05/15 01:37:48;;;;;;;5.27;4.77;;;10.60;99.90;;;;;;5005467;28;20215;-81
2023/05/15 01:40:16;;;;;;;6.93;4.93;;;10.70;99.90;;;;;;5005400;28;20219;-82
2023/05/15 01:43:00;;;;;;;7.00;5.27;;;10.70;99.90;;;;;;5006057;28;20251;-82
2023/05/15 01:45:27;;;;;;;5.70;5.03;;;10.70;99.90;;;;;;4986768;28;20270;-84
2023/05/15 01:47:54;;;;;;;4.90;3.13;;;10.70;99.90;;;;;;4977254;28;20228;-83
2023/05/15 01:50:20;;;;;;;5.17;4.27;;;10.70;99.90;;;;;;4977422;28;20224;-83
2023/05/15 01:52:59;;;;;;;7.90;5.47;;;10.70;99.90;;;;;;4968164;28;20965;-84
2023/05/15 01:55:26;;;;;;;6.27;4.90;;;10.70;99.90;;;;;;5004615;28;20219;-83
2023/05/15 01:57:54;;;;;;;7.37;4.20;;;10.70;99.90;;;;;;5003523;28;20258;-83
2023/05/15 02:00:20;;;;;;;5.10;4.10;;;10.70;99.90;;;;;;4988449;28;20278;-83
2023/05/15 02:02:48;;;;;;;6.37;5.47;;;10.70;99.90;;;;;;5020435;28;20219;-83
2023/05/15 02:05:14;;;;;;;6.23;4.23;;;10.70;99.90;;;;;;5004448;28;20707;-83
2023/05/15 02:07:43;;;;;;;5.03;3.33;;;10.70;99.90;;;;;;5004761;28;20242;-83
2023/05/15 02:10:11;;;;;;;5.93;4.17;;;10.60;99.90;;;;;;5004149;28;20215;-83
2023/05/15 02:12:40;;;;;;;7.57;4.77;;;10.50;99.90;;;;;;4987035;28;20685;-82
2023/05/15 02:15:10;;;;;;;7.60;5.67;;;10.40;99.90;;;;;;5003498;28;20331;-83
2023/05/15 02:17:36;;;;;;;8.03;4.67;;;10.20;99.90;;;;;;5037041;28;20234;-83
2023/05/15 02:20:04;;;;;;;5.10;3.77;;;10.20;99.90;;;;;;5004506;28;20342;-84
2023/05/15 02:22:30;;;;;;;5.27;4.80;;;10.20;99.90;;;;;;5020898;28;20672;-84
2023/05/15 02:24:56;;;;;;;8.13;5.43;;;10.10;99.90;;;;;;5004140;28;20219;-83
2023/05/15 02:27:33;;;;;;;4.67;3.33;;;10.10;99.90;;;;;;4991715;28;21019;-82
2023/05/15 02:30:13;;;;;;;7.27;4.87;;;10.00;99.90;;;;;;4984791;28;20748;-83
2023/05/15 02:33:16;;;;;;;6.57;5.97;;;10.00;99.90;;;;;;4985226;28;20229;-83
2023/05/15 02:36:01;;;;;;;5.63;5.07;;;10.00;99.90;;;;;;4983831;28;20701;-83
2023/05/15 02:38:45;;;;;;;7.03;4.83;;;9.90;99.90;;;;;;4982722;28;20300;-82
2023/05/15 02:41:12;;;;;;;12.00;6.13;;;9.90;99.90;;;;;;4984386;28;20180;-83
2023/05/15 02:43:39;;;;;;;7.20;5.40;;;9.80;99.90;;;;;;4982785;28;20192;-82
2023/05/15 02:46:06;;;;;;;8.97;6.67;;;9.80;99.90;;;;;;4997863;28;20656;-82
2023/05/15 02:48:34;;;;;;;7.67;5.73;;;9.70;99.90;;;;;;4982136;28;20232;-82
2023/05/15 02:51:00;;;;;;;12.63;3.97;;;9.70;99.90;;;;;;4984187;28;20306;-83
2023/05/15 02:53:27;;;;;;;5.90;4.30;;;9.50;99.90;;;;;;4967149;28;20220;-82
2023/05/15 02:55:53;;;;;;;5.57;5.07;;;9.50;99.90;;;;;;5015395;28;20198;-84
2023/05/15 02:58:18;;;;;;;5.33;3.93;;;9.50;99.90;;;;;;4984031;28;20228;-82
2023/05/15 03:00:44;;;;;;;7.00;4.63;;;9.40;99.90;;;;;;5000104;28;20663;-84
2023/05/15 03:03:10;;;;;;;4.93;4.43;;;9.50;99.90;;;;;;4966981;28;20231;-83
2023/05/15 03:05:35;;;;;;;4.30;3.73;;;9.40;99.90;;;;;;5002011;28;20236;-83
2023/05/15 03:08:01;;;;;;;8.73;4.07;;;9.50;99.90;;;;;;5011434;28;20533;-82
2023/05/15 03:10:27;;;;;;;7.33;6.47;;;9.60;99.90;;;;;;5005445;28;20196;-82
2023/05/15 03:12:57;;;;;;;5.50;4.33;;;9.70;99.90;;;;;;4973991;28;20268;-83
2023/05/15 03:15:22;;;;;;;5.77;5.20;;;9.70;99.90;;;;;;4993075;28;20226;-82
2023/05/15 03:17:48;;;;;;;5.20;4.57;;;9.80;99.90;;;;;;5018162;28;20223;-83
2023/05/15 03:20:14;;;;;;;6.10;4.23;;;9.90;99.90;;;;;;5001670;28;20610;-82
2023/05/15 03:22:40;;;;;;;5.13;4.53;;;10.00;99.90;;;;;;5035544;28;20191;-82
2023/05/15 03:25:09;;;;;;;5.87;4.67;;;10.10;99.90;;;;;;5001740;28;20227;-82
2023/05/15 03:27:35;;;;;;;5.53;3.37;;;10.00;99.90;;;;;;4984793;28;20309;-82
2023/05/15 03:30:01;;;;;;;4.70;4.30;;;10.00;99.90;;;;;;5003045;28;20289;-82
2023/05/15 03:32:27;;;;;;;5.00;3.57;;;10.00;99.90;;;;;;5001714;28;20672;-82
2023/05/15 03:34:53;;;;;;;5.10;4.50;;;9.90;99.90;;;;;;5002724;28;20195;-83
2023/05/15 03:37:19;;;;;;;5.53;4.93;;;10.00;99.90;;;;;;5017828;28;20329;-82
2023/05/15 03:39:44;;;;;;;9.20;6.07;;;10.00;99.90;;;;;;5001070;28;20223;-82
2023/05/15 03:42:10;;;;;;;8.83;5.93;;;9.90;99.90;;;;;;4987486;28;21010;-82
2023/05/15 03:44:36;;;;;;;7.03;6.23;;;9.90;99.90;;;;;;4964585;28;20591;-82
2023/05/15 03:47:02;;;;;;;6.80;4.97;;;9.80;99.90;;;;;;4963850;28;20216;-82
2023/05/15 03:49:28;;;;;;;8.50;4.83;;;9.80;99.90;;;;;;4989448;28;20248;-83
2023/05/15 03:51:55;;;;;;;6.73;4.63;;;9.60;99.90;;;;;;4980211;28;20634;-82
2023/05/15 03:54:22;;;;;;;8.90;5.53;;;9.70;99.90;;;;;;5017770;28;20765;-83
2023/05/15 03:56:48;;;;;;;5.00;4.43;;;9.80;99.90;;;;;;4995178;28;20250;-82
2023/05/15 03:59:14;;;;;;;10.17;5.90;;;9.70;99.90;;;;;;4981718;28;20574;-82
2023/05/15 04:01:39;;;;;;;6.83;4.50;;;9.70;99.90;;;;;;4966174;28;20295;-82
2023/05/15 04:04:05;;;;;;;12.03;7.07;;;9.70;99.90;;;;;;4980873;28;20378;-82
2023/05/15 04:06:31;;;;;;;7.33;5.47;;;9.70;99.90;;;;;;4991780;28;20266;-82
2023/05/15 04:08:56;;;;;;;8.40;5.77;;;9.80;99.90;;;;;;4965294;28;20225;-83
2023/05/15 04:11:23;;;;;;;8.67;4.93;;;9.80;99.90;;;;;;4968743;28;20223;-82
2023/05/15 04:13:49;;;;;;;8.83;5.83;;;9.90;99.90;;;;;;5001606;28;21020;-82
2023/05/15 04:16:14;;;;;;;9.50;5.13;;;9.90;99.90;;;;;;5016016;28;20251;-83
2023/05/15 04:18:40;;;;;;;12.40;5.37;;;9.80;99.90;;;;;;4999908;28;20227;-81
2023/05/15 04:21:06;;;;;;;6.60;4.77;;;9.80;99.90;;;;;;4984359;28;20223;-84
2023/05/15 04:23:32;;;;;;;8.10;6.63;;;9.80;99.90;;;;;;4984599;28;20607;-82
2023/05/15 04:25:58;;;;;;;5.90;4.93;;;9.90;99.90;;;;;;5016582;28;20281;-83
2023/05/15 04:28:24;;;;;;;8.80;6.30;;;9.90;99.90;;;;;;4972679;28;20188;-82
2023/05/15 04:30:50;;;;;;;9.80;5.97;;;10.00;99.90;;;;;;4972745;28;20236;-82
2023/05/15 04:33:16;;;;;;;7.17;4.47;;;10.10;99.90;;;;;;4970807;28;20304;-83
2023/05/15 04:35:42;;;;;;;17.10;5.10;;;10.00;99.90;;;;;;4963786;28;20228;-82
2023/05/15 04:38:08;;;;;;;5.03;3.43;;;10.10;99.90;;;;;;4970732;28;20492;-83
2023/05/15 04:40:34;;;;;;;6.30;5.60;;;10.20;99.90;;;;;;4987921;28;20203;-83
2023/05/15 04:43:01;;;;;;;3.67;2.77;;;10.30;99.90;;;;;;4979404;28;20219;-83
2023/05/15 04:45:27;;;;;;;7.37;5.27;;;10.50;99.90;;;;;;5001099;28;20220;-82
2023/05/15 04:47:53;;;;;;;6.20;3.47;;;10.70;99.90;;;;;;4993267;28;20278;-83
2023/05/15 04:50:18;;;;;;;5.37;4.87;;;10.80;99.90;;;;;;4974867;28;20711;-82
2023/05/15 04:52:44;;;;;;;9.43;6.57;;;11.00;99.90;;;;;;4974711;28;20204;-84
2023/05/15 04:55:10;;;;;;;7.23;6.53;;;11.10;99.90;;;;;;4983062;28;20211;-82
2023/05/15 04:57:36;;;;;;;8.47;7.27;;;11.20;99.90;;;;;;5017752;28;21011;-82
2023/05/15 05:00:06;;;;;;;6.33;5.70;;;11.40;99.90;;;;;;4965476;28;20254;-83
2023/05/15 05:02:31;;;;;;;11.77;7.00;;;11.40;99.90;;;;;;4970367;28;20306;-82
2023/05/15 05:04:57;;;;;;;6.67;5.40;;;11.60;99.90;;;;;;4968893;28;20202;-81
2023/05/15 05:07:23;;;;;;;6.77;4.70;;;11.60;99.90;;;;;;5000816;28;20566;-83
2023/05/15 05:09:48;;;;;;;7.20;5.67;;;11.70;99.90;;;;;;4986719;28;20251;-82
2023/05/15 05:12:14;;;;;;;5.80;5.07;;;11.80;99.90;;;;;;5019504;28;20634;-82
2023/05/15 05:14:40;;;;;;;7.37;5.43;;;11.90;99.90;;;;;;5004892;28;20739;-83
2023/05/15 05:17:07;;;;;;;5.33;4.33;;;12.30;99.90;;;;;;4971389;28;20637;-82
2023/05/15 05:19:32;;;;;;;5.57;4.23;;;12.60;99.90;;;;;;5004466;28;20242;-82
2023/05/15 05:22:00;;;;;;;5.50;4.97;;;13.20;99.90;;;;;;5020423;28;20687;-84
2023/05/15 05:24:27;;;;;;;7.93;6.70;;;13.60;99.90;;;;;;4988219;28;20227;-83
2023/05/15 05:26:53;;;;;;;6.57;5.97;;;13.20;99.90;;;;;;4971523;28;20231;-82
2023/05/15 05:29:19;;;;;;;4.90;4.40;;;13.00;99.90;;;;;;4971161;28;20731;-83
2023/05/15 05:31:46;;;;;;;11.20;4.77;;;12.50;99.90;;;;;;4971401;28;20195;-82
2023/05/15 05:34:11;;;;;;;11.83;6.27;;;12.30;99.90;;;;;;5003207;28;20212;-84
2023/05/15 05:36:37;;;;;;;4.83;3.97;;;12.20;99.90;;;;;;5003627;28;20234;-84
2023/05/15 05:39:03;;;;;;;9.00;6.33;;;12.10;99.90;;;;;;5003044;28;20741;-84
2023/05/15 05:41:29;;;;;;;4.07;3.40;;;12.00;99.90;;;;;;5019330;28;20223;-84
2023/05/15 05:43:55;;;;;;;7.67;6.87;;;11.80;99.90;;;;;;4984506;28;20188;-86
2023/05/15 05:46:21;;;;;;;6.07;4.80;;;11.90;99.90;;;;;;5000500;28;20231;-83
2023/05/15 05:48:46;;;;;;;7.97;3.97;;;11.90;99.90;;;;;;5000776;28;20306;-84
2023/05/15 05:51:12;;;;;;;5.47;5.00;;;11.90;99.90;;;;;;5000901;28;20246;-83
2023/05/15 05:53:38;;;;;;;5.03;4.43;;;12.00;99.90;;;;;;4984022;28;20230;-84
2023/05/15 05:56:04;;;;;;;9.07;5.23;;;12.20;99.90;;;;;;4999392;28;20195;-83
2023/05/15 05:58:29;;;;;;;6.83;5.70;;;12.60;99.90;;;;;;4983746;28;20933;-84
2023/05/15 06:00:55;;;;;;;5.67;5.00;;;13.10;99.90;;;;;;4981931;28;20228;-82
2023/05/15 06:03:21;;;;;;;4.70;3.63;;;13.80;99.90;;;;;;4974574;28;20269;-84
2023/05/15 06:05:47;;;;;;;5.20;3.83;;;14.50;99.90;;;;;;4965189;28;20612;-83
2023/05/15 06:08:13;;;;;;;4.97;4.27;;;13.80;99.90;;;;;;4990365;28;20219;-84
2023/05/15 06:10:39;;;;;;;12.83;4.60;;;13.20;99.90;;;;;;4974441;28;20220;-83
2023/05/15 06:13:05;;;;;;;6.10;4.50;;;12.60;99.90;;;;;;4986782;28;20799;-84
2023/05/15 06:15:31;;;;;;;10.97;4.33;;;12.30;99.90;;;;;;4976467;28;20242;-84
2023/05/15 06:17:56;;;;;;;7.80;4.10;;;12.40;99.90;;;;;;4971459;28;20709;-84
2023/05/15 06:20:22;;;;;;;7.40;5.73;;;12.30;99.90;;;;;;4972270;28;20729;-83
2023/05/15 06:22:48;;;;;;;4.43;3.40;;;12.50;99.90;;;;;;4965929;28;20192;-83
2023/05/15 06:25:14;;;;;;;5.47;3.20;;;12.50;99.90;;;;;;4992708;28;20223;-83
2023/05/15 06:27:40;;;;;;;5.83;5.23;;;12.30;99.90;;;;;;4980957;28;20242;-83
2023/05/15 06:30:08;;;;;;;6.07;4.07;;;12.30;99.90;;;;;;5009865;28;20323;-84
2023/05/15 06:32:34;;;;;;;11.10;5.47;;;12.20;99.90;;;;;;4984394;28;20239;-83
2023/05/15 06:35:00;;;;;;;5.63;4.73;;;12.10;99.90;;;;;;4982641;28;21017;-84
2023/05/15 06:37:27;;;;;;;5.73;4.43;;;12.50;99.90;;;;;;4983906;28;20196;-83
2023/05/15 06:39:55;;;;;;;9.20;6.40;;;12.80;99.90;;;;;;5007789;28;20223;-83
2023/05/15 06:42:21;;;;;;;5.10;3.67;;;13.10;99.90;;;;;;5000237;28;20229;-83
2023/05/15 06:44:48;;;;;;;6.50;4.73;;;12.80;99.90;;;;;;4994706;28;20588;-83
2023/05/15 06:47:14;;;;;;;6.10;4.43;;;12.90;99.90;;;;;;4984291;28;20678;-84
2023/05/15 06:49:40;;;;;;;5.90;4.00;;;12.80;99.90;;;;;;5002922;28;20206;-84
2023/05/15 06:52:06;;;;;;;6.03;3.87;;;12.70;99.90;;;;;;5016816;28;20712;-84
2023/05/15 06:54:31;;;;;;;5.13;3.60;;;12.90;99.90;;;;;;4986009;28;20688;-84
2023/05/15 06:56:57;;;;;;;4.33;3.70;;;13.00;99.90;;;;;;5001078;28;20842;-84
2023/05/15 06:59:23;;;;;;;4.57;3.90;;;14.20;99.90;;;;;;5001720;28;20269;-85
2023/05/15 07:01:49;;;;;;;4.73;4.07;;;15.50;99.90;;;;;;4969919;28;20249;-85
2023/05/15 07:04:15;;;;;;;3.77;3.30;;;16.80;99.90;;;;;;5003331;28;20235;-84
2023/05/15 07:06:42;;;;;;;3.40;2.87;;;17.60;99.90;;;;;;4969774;28;20235;-85
2023/05/15 07:09:08;;;;;;;3.37;2.83;;;16.50;99.90;;;;;;5017999;28;20218;-84
2023/05/15 07:11:36;;;;;;;7.27;3.70;;;16.30;99.90;;;;;;4996662;28;20240;-85
2023/05/15 07:14:02;;;;;;;6.10;3.43;;;16.90;99.90;;;;;;4982513;28;20200;-85
2023/05/15 07:16:29;;;;;;;5.97;4.27;;;18.90;99.90;;;;;;4967320;28;20219;-85
2023/05/15 07:18:54;;;;;;;4.83;3.73;;;20.60;99.90;;;;;;4981866;28;20579;-85
2023/05/15 07:21:20;;;;;;;3.23;2.93;;;22.30;99.90;;;;;;4950198;28;20224;-86
2023/05/15 07:23:46;;;;;;;5.17;3.97;;;22.60;99.90;;;;;;4981304;28;20307;-85
2023/05/15 07:26:13;;;;;;;3.60;3.13;;;23.10;99.90;;;;;;4965663;28;20700;-85
2023/05/15 07:28:39;;;;;;;4.77;3.70;;;21.70;99.90;;;;;;4983138;28;20204;-85
2023/05/15 07:31:06;;;;;;;5.80;4.03;;;21.20;99.90;;;;;;4982244;28;20659;-85
2023/05/15 07:33:32;;;;;;;7.17;3.47;;;19.90;99.90;;;;;;5002615;28;20670;-84
2023/05/15 07:35:58;;;;;;;4.93;3.50;;;19.40;99.90;;;;;;5007952;28;20326;-86
2023/05/15 07:38:23;;;;;;;3.97;3.57;;;20.20;99.90;;;;;;5021386;28;20246;-85
2023/05/15 07:40:49;;;;;;;5.33;3.57;;;21.70;99.90;;;;;;4983412;28;20971;-84
2023/05/15 07:43:15;;;;;;;3.20;2.90;;;20.90;99.90;;;;;;4998630;28;20222;-84
2023/05/15 07:45:41;;;;;;;4.50;3.73;;;18.80;99.90;;;;;;4997185;28;20330;-86
2023/05/15 07:48:14;;;;;;;4.93;3.93;;;17.10;99.90;;;;;;5001565;28;20227;-87
2023/05/15 07:50:40;;;;;;;5.57;4.17;;;17.70;99.90;;;;;;4969369;28;20239;-86
2023/05/15 07:53:06;;;;;;;3.97;3.57;;;17.90;99.90;;;;;;5034293;28;20548;-85
2023/05/15 07:55:32;;;;;;;4.37;3.67;;;18.50;99.90;;;;;;5019011;28;20193;-85
2023/05/15 07:57:57;;;;;;;4.87;3.57;;;18.80;99.90;;;;;;5018116;28;20223;-86
2023/05/15 08:00:23;;;;;;;9.97;4.53;;;19.20;99.90;;;;;;4983436;28;21033;-85
2023/05/15 08:02:49;;;;;;;6.37;5.03;;;20.30;99.90;;;;;;5017151;28;20249;-84
2023/05/15 08:05:15;;;;;;;13.03;5.23;;;20.60;99.90;;;;;;4999872;28;20195;-84
2023/05/15 08:07:41;;;;;;;7.67;4.30;;;20.30;99.90;;;;;;5001863;28;20227;-85
2023/05/15 08:10:07;;;;;;;4.23;3.80;;;20.50;99.90;;;;;;4983491;28;20620;-83
2023/05/15 08:12:33;;;;;;;5.60;4.30;;;20.40;99.90;;;;;;4964580;28;20247;-85
2023/05/15 08:14:59;;;;;;;3.33;2.80;;;19.60;99.90;;;;;;5013281;28;20698;-86
2023/05/15 08:17:25;;;;;;;6.33;3.73;;;18.40;99.90;;;;;;4964781;28;20522;-88
2023/05/15 08:19:50;;;;;;;4.30;3.43;;;17.80;99.90;;;;;;5016601;28;20179;-85
2023/05/15 08:22:16;;;;;;;8.43;4.50;;;16.90;99.90;;;;;;4985489;28;20231;-87
2023/05/15 08:24:43;;;;;;;5.50;3.70;;;16.40;99.90;;;;;;4985625;28;20227;-86
2023/05/15 08:27:09;;;;;;;4.07;3.57;;;15.60;99.90;;;;;;5008155;28;20235;-86
2023/05/15 08:29:36;;;;;;;3.73;3.37;;;14.90;99.90;;;;;;5015675;28;20243;-86
2023/05/15 08:32:02;;;;;;;3.97;3.53;;;14.80;99.90;;;;;;5013974;28;20192;-84
2023/05/15 08:34:28;;;;;;;4.87;4.07;;;15.10;99.90;;;;;;5005402;28;20278;-86
2023/05/15 08:36:55;;;;;;;4.90;4.33;;;15.60;99.90;;;;;;4988463;28;20635;-86
2023/05/15 08:39:21;;;;;;;5.23;3.47;;;15.40;99.90;;;;;;5004631;28;21064;-84
2023/05/15 08:42:04;;;;;;;4.70;3.50;;;15.30;99.90;;;;;;5020906;28;20223;-84
2023/05/15 08:44:30;;;;;;;3.50;3.10;;;14.80;99.90;;;;;;5004965;28;20758;-87
2023/05/15 08:46:57;;;;;;;3.87;3.57;;;14.40;99.90;;;;;;5037594;28;20223;-85
2023/05/15 08:49:31;;;;;;;3.60;3.20;;;14.30;99.90;;;;;;5037710;28;20219;-87
2023/05/15 08:51:57;;;;;;;3.83;2.80;;;14.20;99.90;;;;;;5005861;28;20222;-86
2023/05/15 08:54:24;;;;;;;4.43;3.87;;;14.20;99.90;;;;;;5005467;28;20285;-85
2023/05/15 08:56:50;;;;;;;4.30;3.37;;;14.40;99.90;;;;;;4987650;28;20714;-86
2023/05/15 08:59:16;;;;;;;4.70;3.03;;;14.70;99.90;;;;;;5037014;28;20184;-84
2023/05/15 09:01:42;;;;;;;5.00;4.17;;;14.70;99.90;;;;;;4988968;28;20454;-86
2023/05/15 09:04:07;;;;;;;5.30;4.27;;;15.00;99.90;;;;;;5004431;28;20782;-89
2023/05/15 09:06:34;;;;;;;5.60;4.17;;;15.50;99.90;;;;;;5020202;28;20697;-85
2023/05/15 09:09:02;;;;;;;4.60;4.00;;;15.70;99.90;;;;;;4986948;28;20231;-85
2023/05/15 09:11:30;;;;;;;5.03;3.50;;;15.10;99.90;;;;;;4986086;28;20229;-85
2023/05/15 09:13:59;;;;;;;5.30;4.00;;;14.90;99.90;;;;;;5035399;28;20222;-85
2023/05/15 09:16:26;;;;;;;3.83;3.37;;;14.80;99.90;;;;;;4982848;28;20207;-84
2023/05/15 09:18:52;;;;;;;5.17;4.13;;;14.80;99.90;;;;;;4988954;28;20220;-88
2023/05/15 09:21:25;;;;;;;3.23;3.00;;;14.90;99.90;;;;;;5024374;28;20273;-89
2023/05/15 09:24:22;;;;;;;6.40;5.53;;;14.70;99.90;;;;;;5006161;28;20226;-87
2023/05/15 09:27:09;;;;;;;5.00;4.47;;;14.70;99.90;;;;;;5003421;28;20532;-85
2023/05/15 09:29:37;;;;;;;4.90;3.87;;;15.00;99.90;;;;;;5004957;28;20342;-86
2023/05/15 09:32:05;;;;;;;4.53;3.33;;;14.80;99.90;;;;;;5004168;28;20218;-85
2023/05/15 09:34:36;;;;;;;5.83;3.70;;;14.70;99.90;;;;;;4983046;28;20694;-85
2023/05/15 09:37:07;;;;;;;6.87;3.83;;;14.70;99.90;;;;;;4977028;28;20230;-85
2023/05/15 09:39:42;;;;;;;3.30;2.90;;;14.70;99.90;;;;;;4967005;28;20240;-85
2023/05/15 09:42:10;;;;;;;2.90;2.70;;;14.40;99.90;;;;;;4999149;28;20228;-84
2023/05/15 09:44:42;;;;;;;6.60;3.43;;;14.50;99.90;;;;;;4983073;28;20232;-84
2023/05/15 09:47:13;;;;;;;2.97;2.77;;;14.40;99.90;;;;;;4977988;28;20216;-85
2023/05/15 09:49:39;;;;;;;4.73;2.93;;;14.10;99.90;;;;;;4974497;28;20561;-86
2023/05/15 09:52:08;;;;;;;3.33;2.90;;;14.20;99.90;;;;;;4976285;28;20225;-84
2023/05/15 09:54:35;;;;;;;2.73;2.47;;;14.10;99.90;;;;;;4992403;28;20354;-85
2023/05/15 09:57:10;;;;;;;3.70;2.33;;;14.10;99.90;;;;;;4991227;28;20394;-84
2023/05/15 09:59:41;;;;;;;2.37;2.17;;;14.30;99.90;;;;;;4997368;28;20227;-84
2023/05/15 10:02:07;;;;;;;2.80;2.33;;;14.20;99.90;;;;;;4983345;28;20219;-84
2023/05/15 10:04:37;;;;;;;3.73;3.40;;;13.90;99.90;;;;;;4962244;28;20203;-85
2023/05/15 10:07:06;;;;;;;4.40;3.27;;;13.70;99.90;;;;;;4982088;28;20275;-86
2023/05/15 10:09:32;;;;;;;3.60;2.83;;;13.60;99.90;;;;;;4980262;28;20282;-85
2023/05/15 10:11:58;;;;;;;3.90;2.87;;;13.70;99.90;;;;;;5001148;28;20223;-85
2023/05/15 10:14:26;;;;;;;4.20;1.93;;;13.80;99.90;;;;;;4984977;28;20223;-84
2023/05/15 10:16:55;;;;;;;2.73;2.30;;;13.80;99.90;;;;;;5036268;28;20636;-86
2023/05/15 10:19:24;;;;;;;6.53;2.97;;;13.80;99.90;;;;;;5002197;28;20211;-86
2023/05/15 10:21:51;;;;;;;3.90;2.93;;;13.80;99.90;;;;;;4983773;28;20707;-86
2023/05/15 10:24:19;;;;;;;4.00;2.37;;;13.80;99.90;;;;;;4964993;28;20215;-86
2023/05/15 10:26:46;;;;;;;4.83;3.10;;;14.00;99.90;;;;;;4976760;28;20294;-86
2023/05/15 10:29:16;;;;;;;2.40;2.20;;;14.00;99.90;;;;;;4976145;28;20333;-86
2023/05/15 10:31:42;;;;;;;5.07;2.93;;;14.00;99.90;;;;;;4982320;28;20276;-86
2023/05/15 10:34:09;;;;;;;3.37;3.07;;;14.00;99.90;;;;;;4984157;28;20219;-86
2023/05/15 10:36:37;;;;;;;3.10;2.70;;;14.30;99.90;;;;;;4986216;28;20274;-86
2023/05/15 10:39:05;;;;;;;2.97;2.67;;;14.30;99.90;;;;;;4990342;28;20710;-85
2023/05/15 10:41:35;;;;;;;4.53;3.47;;;14.50;99.90;;;;;;4973717;28;20223;-86
2023/05/15 10:44:01;;;;;;;2.90;2.60;;;15.00;99.90;;;;;;4973619;28;20209;-86
2023/05/15 10:46:29;;;;;;;2.90;2.00;;;14.50;99.90;;;;;;4974209;28;20298;-86
2023/05/15 10:48:56;;;;;;;6.10;4.23;;;14.50;99.90;;;;;;4972288;28;20229;-86
2023/05/15 10:51:35;;;;;;;3.97;3.57;;;14.80;99.90;;;;;;4976056;28;20310;-86
2023/05/15 10:54:04;;;;;;;3.93;3.23;;;14.60;99.90;;;;;;4974197;28;20219;-86
2023/05/15 10:56:32;;;;;;;5.83;3.27;;;14.70;99.90;;;;;;4964053;28;20243;-85
2023/05/15 10:59:03;;;;;;;4.93;2.43;;;14.40;99.90;;;;;;4974976;28;20246;-85
2023/05/15 11:01:31;;;;;;;5.17;2.87;;;14.20;99.90;;;;;;4976164;28;20752;-85
2023/05/15 11:04:14;;;;;;;3.97;3.67;;;14.10;99.90;;;;;;4989526;28;20219;-86
2023/05/15 11:06:42;;;;;;;4.50;3.60;;;14.30;99.90;;;;;;4996463;28;20269;-86
2023/05/15 11:09:20;;;;;;;2.57;2.30;;;14.40;99.90;;;;;;5002957;28;20219;-86
2023/05/15 11:11:56;;;;;;;3.03;2.73;;;14.30;99.90;;;;;;5017520;28;20219;-83
2023/05/15 11:14:24;;;;;;;3.43;3.13;;;14.40;99.90;;;;;;5031904;28;20321;-84
2023/05/15 11:16:52;;;;;;;5.13;2.83;;;14.60;99.90;;;;;;4998813;28;20187;-84
2023/05/15 11:19:21;;;;;;;6.47;3.07;;;14.60;99.90;;;;;;4979694;28;20256;-84
2023/05/15 11:21:52;;;;;;;3.77;3.17;;;14.60;99.90;;;;;;5012071;28;20225;-84
2023/05/15 11:24:18;;;;;;;5.50;3.57;;;14.50;99.90;;;;;;4980347;28;20730;-84
2023/05/15 11:26:43;;;;;;;3.57;3.17;;;14.80;99.90;;;;;;4979411;28;20704;-84
2023/05/15 11:29:18;;;;;;;4.47;2.93;;;15.10;99.90;;;;;;4979286;28;20238;-84
2023/05/15 11:31:44;;;;;;;4.80;2.93;;;14.80;99.90;;;;;;4980618;28;20226;-84
2023/05/15 11:34:10;;;;;;;3.60;2.80;;;14.80;99.90;;;;;;4963387;28;20223;-84
2023/05/15 11:36:42;;;;;;;4.13;3.63;;;14.80;99.90;;;;;;4957247;28;20245;-84
2023/05/15 11:39:11;;;;;;;9.43;3.60;;;14.80;99.90;;;;;;4990164;28;20249;-85
2023/05/15 11:41:38;;;;;;;3.67;2.83;;;14.80;99.90;;;;;;4989662;28;20229;-84
2023/05/15 11:44:04;;;;;;;3.77;2.27;;;14.70;99.90;;;;;;5000285;28;20195;-85
2023/05/15 11:46:31;;;;;;;2.70;2.43;;;14.40;99.90;;;;;;4981353;28;20230;-85
2023/05/15 11:48:57;;;;;;;2.93;2.73;;;14.20;99.90;;;;;;4996337;28;20845;-84
2023/05/15 11:51:25;;;;;;;2.90;2.70;;;14.30;99.90;;;;;;5009035;28;20215;-85
2023/05/15 11:53:55;;;;;;;4.60;3.20;;;14.40;99.90;;;;;;5000454;28;20227;-84
2023/05/15 11:56:23;;;;;;;2.90;2.70;;;14.30;99.90;;;;;;4986278;28;20233;-87
2023/05/15 11:58:56;;;;;;;3.13;2.77;;;14.10;99.90;;;;;;5005309;28;20195;-85
2023/05/15 12:01:22;;;;;;;3.93;3.53;;;14.00;99.90;;;;;;4984553;28;20215;-84
2023/05/15 12:03:48;;;;;;;3.90;2.37;;;14.00;99.90;;;;;;4983908;28;20230;-85
2023/05/15 12:06:15;;;;;;;3.20;1.53;;;13.80;99.90;;;;;;5004181;28;20317;-84
2023/05/15 12:08:41;;;;;;;7.90;2.27;;;13.60;99.90;;;;;;5002606;28;20590;-85
2023/05/15 12:11:07;;;;;;;4.23;3.20;;;13.90;99.90;;;;;;5001748;28;20664;-84
2023/05/15 12:13:33;;;;;;;3.40;2.73;;;13.90;99.90;;;;;;4986501;28;20194;-84
2023/05/15 12:16:03;;;;;;;5.43;3.67;;;13.80;99.90;;;;;;5002084;28;20226;-86
2023/05/15 12:18:32;;;;;;;2.90;2.57;;;13.80;99.90;;;;;;5001986;28;20219;-84
2023/05/15 12:20:59;;;;;;;8.13;2.83;;;13.60;99.90;;;;;;5001985;28;20235;-84
2023/05/15 12:23:26;;;;;;;3.30;2.23;;;13.50;99.90;;;;;;5033968;28;20223;-85
2023/05/15 12:26:02;;;;;;;3.50;2.30;;;13.70;99.90;;;;;;5001868;28;20727;-84
2023/05/15 12:28:29;;;;;;;4.80;2.33;;;13.70;99.90;;;;;;5001045;28;20206;-84
2023/05/15 12:30:55;;;;;;;2.87;2.47;;;13.40;99.90;;;;;;5001457;28;20268;-84
2023/05/15 12:33:22;;;;;;;5.43;3.40;;;13.30;99.90;;;;;;4972975;28;20238;-84
2023/05/15 12:35:55;;;;;;;1.97;1.87;;;13.30;99.90;;;;;;4988200;28;20316;-85
2023/05/15 12:38:21;;;;;;;2.37;2.13;;;13.30;99.90;;;;;;5004007;28;20233;-84
2023/05/15 12:40:52;;;;;;;2.77;2.17;;;13.20;99.90;;;;;;5004133;28;20959;-83
2023/05/15 12:43:18;;;;;;;2.53;1.87;;;13.30;99.90;;;;;;5004396;28;20463;-84
2023/05/15 12:45:44;;;;;;;2.00;1.80;;;13.30;99.90;;;;;;5003114;28;20219;-83
2023/05/15 12:48:16;;;;;;;2.50;2.03;;;13.10;99.90;;;;;;5019909;28;20227;-85
2023/05/15 12:50:44;;;;;;;2.80;2.60;;;13.10;99.90;;;;;;4980012;28;20322;-85